Tambon Pak Phun, Thailand

6:50 AM ICT on February 15, 2016 (GMT +0700)
Nakhon Si Thammarat | | Change Station
CLOSE
Current Station
Airport
Location: Nakhon Si Thamma,
Elevation: 13 ft
Nearby Weather Stations

Elev 13 ft 8.54 °N, 99.94 °E | Updated 50 minutes ago

Partly Cloudy
Partly Cloudy
73 °F
Feels Like 73 °F
N
0
Wind Variable Wind from North

Today
High -- | Low -- °F
--% Chance of Precip.
Yesterday
High -- | Low -- °F
Precip. -- in
Pressure 29.89 in
Visibility -9999.0 miles
Clouds Few 1800 ft
Dew Point 73 °F
Humidity 100%
Rainfall 0.00 in
Snow Depth Not available.
6:38 AM 6:30 PM
Waxing Crescent, 46% visible
METAR VTSF 142300Z 00000KT 90000 FEW018 23/23 Q1012 A2990
Pressure 29.89 in
Visibility -9999.0 miles
Clouds Few 1800 ft
Dew Point 73 °F
Humidity 100%
Rainfall 0.00 in
Snow Depth Not available.
6:38 AM 6:30 PM
Waxing Crescent, 46% visible
METAR VTSF 142300Z 00000KT 90000 FEW018 23/23 Q1012 A2990

10-Day Weather Forecast

No radar image for this location.
×

Almanac

Astronomy

Feb. 15, 2016 Rise Set
Actual Time
Civil Twilight
Nautical Twilight
Astronomical Twilight
Moon
Length of Visible Light
Length of Day
Tomorrow will be .
, % of the Moon is Illuminated

Today's Extremes

Country Highs Country Lows

Community

WunderPhotos

Upload Photos

1,892,929 photos uploaded!

WunderBlog® & News

Nearby

Air Quality

  Air Quality AQ Index Pollutant
Not available.

Snow Depth

Station Depth Elevation

Earthquake Activity

City Distance Mag. Time & Date
Minimum magnitude displayed is 2.5.

Coastal Water Temperatures

Place Temperature

Stations

Nearby Weather Stations

Station Location Temp. Windchill Dew Point Humidity Wind Precip. Elev Updated Type